createdAt,value
2023-02-13T00:00:49.636Z,3.70
2023-02-13T00:03:16.977Z,3.70
2023-02-13T00:05:44.328Z,3.60
2023-02-13T00:08:11.496Z,3.60
2023-02-13T00:10:38.809Z,3.50
2023-02-13T00:13:05.992Z,3.50
2023-02-13T00:15:33.915Z,3.60
2023-02-13T00:18:02.512Z,3.60
2023-02-13T00:20:29.794Z,3.60
2023-02-13T00:22:59.633Z,3.40
2023-02-13T00:25:26.903Z,3.40
2023-02-13T00:27:54.236Z,3.40
2023-02-13T00:30:22.449Z,3.40
2023-02-13T00:32:51.522Z,3.30
2023-02-13T00:35:18.981Z,3.50
2023-02-13T00:37:46.252Z,3.40
2023-02-13T00:40:14.706Z,3.30
2023-02-13T00:42:41.935Z,3.30
2023-02-13T00:45:09.900Z,3.30
2023-02-13T00:47:37.025Z,3.30
2023-02-13T00:50:04.679Z,3.10
2023-02-13T00:52:31.944Z,3.10
2023-02-13T00:54:59.214Z,3.20
2023-02-13T00:57:26.398Z,3.30
2023-02-13T00:59:53.606Z,3.20
2023-02-13T01:02:20.830Z,3.30
2023-02-13T01:04:48.036Z,3.20
2023-02-13T01:07:16.641Z,3.30
2023-02-13T01:09:45.617Z,3.10
2023-02-13T01:12:12.729Z,3.10
2023-02-13T01:14:40.031Z,3.20
2023-02-13T01:17:07.274Z,3.30
2023-02-13T01:19:35.565Z,3.40
2023-02-13T01:22:02.799Z,3.30
2023-02-13T01:24:33.365Z,3.30
2023-02-13T01:27:02.804Z,3.10
2023-02-13T01:29:30.646Z,3.10
2023-02-13T01:31:58.377Z,3.10
2023-02-13T01:34:29.164Z,3.20
2023-02-13T01:36:56.376Z,3.10
2023-02-13T01:39:25.350Z,2.90
2023-02-13T01:41:52.601Z,2.90
2023-02-13T01:44:49.848Z,2.90
2023-02-13T01:47:38.341Z,2.90
2023-02-13T01:50:33.666Z,3.00
2023-02-13T01:53:07.024Z,2.90
2023-02-13T01:55:41.325Z,2.90
2023-02-13T01:58:14.764Z,3.00
2023-02-13T02:00:44.330Z,3.40
2023-02-13T02:03:34.324Z,3.40
2023-02-13T02:06:11.043Z,3.50
2023-02-13T02:08:39.409Z,3.30
2023-02-13T02:11:12.162Z,3.30
2023-02-13T02:13:39.429Z,3.40
2023-02-13T02:16:10.560Z,3.30
2023-02-13T02:18:37.788Z,3.20
2023-02-13T02:21:42.568Z,3.20
2023-02-13T02:24:47.542Z,3.20
2023-02-13T02:27:41.076Z,3.20
2023-02-13T02:30:25.509Z,3.10
2023-02-13T02:33:03.620Z,3.20
2023-02-13T02:35:43.878Z,3.10
2023-02-13T02:38:38.791Z,3.10
2023-02-13T02:41:42.788Z,3.00
2023-02-13T02:44:49.610Z,3.00
2023-02-13T02:47:44.041Z,3.00
2023-02-13T02:50:36.081Z,3.10
2023-02-13T02:53:33.969Z,3.20
2023-02-13T02:56:06.619Z,3.20
2023-02-13T02:59:09.340Z,3.20
2023-02-13T03:01:57.635Z,3.10
2023-02-13T03:04:52.333Z,3.10
2023-02-13T03:07:20.890Z,3.00
2023-02-13T03:10:14.728Z,3.10
2023-02-13T03:13:11.751Z,3.20
2023-02-13T03:16:02.279Z,2.90
2023-02-13T03:18:51.937Z,3.00
2023-02-13T03:22:10.979Z,3.00
2023-02-13T03:24:40.994Z,2.90
2023-02-13T03:27:11.101Z,2.90
2023-02-13T03:30:08.735Z,3.00
2023-02-13T03:32:54.817Z,3.00
2023-02-13T03:36:11.359Z,3.10
2023-02-13T03:39:28.482Z,3.20
2023-02-13T03:42:11.052Z,3.20
2023-02-13T03:45:27.260Z,3.20
2023-02-13T03:47:57.989Z,3.10
2023-02-13T03:50:28.021Z,3.00
2023-02-13T03:53:11.869Z,3.10
2023-02-13T03:56:05.611Z,3.10
2023-02-13T03:59:00.147Z,3.00
2023-02-13T04:01:32.367Z,3.00
2023-02-13T04:04:25.746Z,2.90
2023-02-13T04:06:57.719Z,2.80
2023-02-13T04:09:27.936Z,2.80
2023-02-13T04:12:09.495Z,2.90
2023-02-13T04:14:50.135Z,2.80
2023-02-13T04:17:31.429Z,2.80
2023-02-13T04:19:58.652Z,2.80
2023-02-13T04:22:26.057Z,2.80
2023-02-13T04:24:53.385Z,2.80
2023-02-13T12:29:01.526Z,2.80
2023-02-13T12:31:58.769Z,17.90
2023-02-13T12:34:43.418Z,17.50
2023-02-13T12:37:35.166Z,15.40
2023-02-13T12:40:45.018Z,13.00
2023-02-13T12:43:32.147Z,11.20
2023-02-13T12:46:26.710Z,10.90
2023-02-13T12:49:17.553Z,11.80
2023-02-13T12:52:12.964Z,11.20
2023-02-13T12:55:10.304Z,10.30
2023-02-13T12:58:01.547Z,9.80
2023-02-13T13:00:57.532Z,9.60
2023-02-13T13:04:02.255Z,9.60
2023-02-13T13:06:57.367Z,9.50
2023-02-13T13:09:42.692Z,9.40
2023-02-13T13:12:20.550Z,9.50
2023-02-13T13:15:08.382Z,10.00
2023-02-13T13:17:59.486Z,9.50
2023-02-13T13:21:08.835Z,9.20
2023-02-13T13:23:46.320Z,9.30
2023-02-13T13:26:23.302Z,9.20
2023-02-13T13:28:55.005Z,9.20
2023-02-13T13:31:26.699Z,9.10
2023-02-13T13:33:58.935Z,8.80
2023-02-13T13:36:48.636Z,8.80
2023-02-13T13:39:26.674Z,8.60
2023-02-13T13:42:28.605Z,8.50
2023-02-13T13:45:05.591Z,8.50
2023-02-13T13:47:52.117Z,8.40
2023-02-13T13:50:21.735Z,8.40
2023-02-13T13:53:25.652Z,8.50
2023-02-13T13:55:53.178Z,8.40
2023-02-13T13:58:39.984Z,8.40
2023-02-13T14:01:40.028Z,8.30
2023-02-13T14:04:33.556Z,8.30
2023-02-13T14:07:02.090Z,8.30
2023-02-13T14:09:40.334Z,8.10
2023-02-13T14:12:29.186Z,8.10
2023-02-13T14:14:58.736Z,8.10
2023-02-13T14:17:44.820Z,8.10
2023-02-13T14:20:40.773Z,8.00
2023-02-13T14:23:20.327Z,8.10
2023-02-13T14:25:48.404Z,8.00
2023-02-13T14:28:25.545Z,7.90
2023-02-13T14:31:10.814Z,7.90
2023-02-13T14:33:38.688Z,7.90
2023-02-13T14:36:21.773Z,7.90
2023-02-13T14:38:58.023Z,7.90
2023-02-13T14:41:54.629Z,7.80
2023-02-13T14:44:32.837Z,7.80
2023-02-13T14:47:05.000Z,7.70
2023-02-13T14:49:38.551Z,7.70
2023-02-13T14:52:26.828Z,7.70
2023-02-13T14:55:02.529Z,7.70
2023-02-13T14:57:34.703Z,7.70
2023-02-13T15:00:12.965Z,7.70
2023-02-13T15:02:53.325Z,7.80
2023-02-13T15:05:21.305Z,7.80
2023-02-13T15:07:52.896Z,7.90
2023-02-13T15:10:45.192Z,7.90
2023-02-13T15:13:41.233Z,7.90
2023-02-13T15:16:15.156Z,7.80
2023-02-13T15:18:45.493Z,7.80
2023-02-13T15:21:17.630Z,7.80
2023-02-13T15:23:57.839Z,7.70
2023-02-13T15:26:28.997Z,7.70
2023-02-13T15:29:17.483Z,7.70
2023-02-13T15:31:53.033Z,7.60
2023-02-13T15:34:36.041Z,7.60
2023-02-13T15:37:03.415Z,7.60
2023-02-13T15:39:32.575Z,7.70
2023-02-13T15:42:03.143Z,7.60
2023-02-13T15:44:37.306Z,7.70
2023-02-13T15:47:34.464Z,7.70
2023-02-13T15:50:01.854Z,7.70
2023-02-13T15:52:34.718Z,7.60
2023-02-13T15:55:02.450Z,7.50
2023-02-13T15:57:30.534Z,7.50
2023-02-13T15:59:59.615Z,7.40
2023-02-13T16:02:40.596Z,7.40
2023-02-13T16:05:11.342Z,7.50
2023-02-13T16:07:53.336Z,7.50
2023-02-13T16:10:49.762Z,7.40
2023-02-13T16:13:20.893Z,7.50
2023-02-13T16:15:48.278Z,7.40
2023-02-13T16:18:20.453Z,7.40
2023-02-13T16:20:54.933Z,7.40
2023-02-13T16:23:22.934Z,7.40
2023-02-13T16:25:50.237Z,7.40
2023-02-13T16:28:23.604Z,7.30
2023-02-13T16:31:03.265Z,7.30
2023-02-13T16:33:32.284Z,7.30
2023-02-13T16:36:16.635Z,7.30
2023-02-13T16:38:51.380Z,7.20
2023-02-13T16:41:25.916Z,7.20
2023-02-13T16:43:54.591Z,7.20
2023-02-13T16:46:39.734Z,7.10
2023-02-13T16:49:17.525Z,7.10
2023-02-13T16:51:51.961Z,7.00
2023-02-13T16:54:38.540Z,7.00
2023-02-13T16:57:14.928Z,7.00
2023-02-13T16:59:48.198Z,7.00
2023-02-13T17:02:27.548Z,7.00
2023-02-13T17:05:12.109Z,7.00
2023-02-13T17:07:41.788Z,7.00
2023-02-13T17:10:19.864Z,7.00
2023-02-13T17:12:48.844Z,7.00
2023-02-13T17:15:20.491Z,7.00
2023-02-13T17:17:48.345Z,7.00
2023-02-13T17:20:24.848Z,6.90
2023-02-13T17:22:55.050Z,6.90
2023-02-13T17:25:22.973Z,6.80
2023-02-13T17:27:52.704Z,6.70
2023-02-13T17:30:23.641Z,6.70
2023-02-13T17:32:57.355Z,6.60
2023-02-13T17:35:25.443Z,6.60
2023-02-13T17:37:52.677Z,6.50
2023-02-13T17:40:22.983Z,6.50
2023-02-13T17:42:55.384Z,6.50
2023-02-13T17:45:25.656Z,6.40
2023-02-13T17:47:53.868Z,6.40
2023-02-13T17:50:22.256Z,6.30
2023-02-13T17:52:49.850Z,6.30
2023-02-13T17:55:21.379Z,6.20
2023-02-13T17:57:49.276Z,6.20
2023-02-13T18:00:17.994Z,6.30
2023-02-13T18:02:45.299Z,6.40
2023-02-13T18:05:12.496Z,6.40
2023-02-13T18:07:42.914Z,6.40
2023-02-13T18:10:19.369Z,6.30
2023-02-13T18:12:48.046Z,6.30
2023-02-13T18:15:15.594Z,6.20
2023-02-13T18:17:43.551Z,6.30
2023-02-13T18:20:17.543Z,6.30
2023-02-13T18:22:45.481Z,6.20
2023-02-13T18:25:13.808Z,6.20
2023-02-13T18:27:41.035Z,6.20
2023-02-13T18:30:09.869Z,6.10
2023-02-13T18:32:37.578Z,6.20
2023-02-13T18:35:05.004Z,6.10
2023-02-13T18:37:34.431Z,6.10
2023-02-13T18:40:01.827Z,6.00
2023-02-13T18:42:30.532Z,6.00
2023-02-13T18:45:00.859Z,6.00
2023-02-13T18:47:29.373Z,6.00
2023-02-13T18:49:57.834Z,6.00
2023-02-13T18:52:25.169Z,6.00
2023-02-13T18:54:52.368Z,6.00
2023-02-13T18:57:20.183Z,6.00
2023-02-13T18:59:47.355Z,5.90
2023-02-13T19:02:16.323Z,5.80
2023-02-13T19:04:43.597Z,5.80
2023-02-13T19:07:13.831Z,5.80
2023-02-13T19:09:41.349Z,5.80
2023-02-13T19:12:08.935Z,5.80
2023-02-13T19:14:36.279Z,5.70
2023-02-13T19:17:03.987Z,5.80
2023-02-13T19:19:34.700Z,5.70
2023-02-13T19:22:02.870Z,5.70
2023-02-13T19:24:30.238Z,5.70
2023-02-13T19:26:57.475Z,5.60
2023-02-13T19:29:24.821Z,5.60
2023-02-13T19:31:52.617Z,5.70
2023-02-13T19:34:19.902Z,5.80
2023-02-13T19:36:47.451Z,5.70
2023-02-13T19:39:14.841Z,5.60
2023-02-13T19:41:42.133Z,5.70
2023-02-13T19:44:11.569Z,5.70
2023-02-13T19:46:39.375Z,5.70
2023-02-13T19:49:07.177Z,5.70
2023-02-13T19:51:35.379Z,5.70
2023-02-13T19:54:11.223Z,5.90
2023-02-13T19:56:39.754Z,5.90
2023-02-13T19:59:09.164Z,6.00
2023-02-13T20:01:36.451Z,6.10
2023-02-13T20:04:03.604Z,6.10
2023-02-13T20:06:35.104Z,6.00
2023-02-13T20:09:07.303Z,6.10
2023-02-13T20:11:34.806Z,6.20
2023-02-13T20:14:04.103Z,6.20
2023-02-13T20:16:35.486Z,6.10
2023-02-13T20:19:07.871Z,6.10
2023-02-13T20:21:37.499Z,6.10
2023-02-13T20:24:06.362Z,6.20
2023-02-13T20:26:34.774Z,6.30
2023-02-13T20:29:03.949Z,6.30
2023-02-13T20:31:35.838Z,6.30
2023-02-13T20:34:06.933Z,6.30
2023-02-13T20:36:35.318Z,6.30
2023-02-13T20:39:07.048Z,6.30
2023-02-13T20:41:37.992Z,6.20
2023-02-13T20:44:10.380Z,6.20
2023-02-13T20:46:40.408Z,6.20
2023-02-13T20:49:09.043Z,6.10
2023-02-13T20:51:36.403Z,6.10
2023-02-13T20:54:05.343Z,6.20
2023-02-13T20:56:32.767Z,6.20
2023-02-13T20:59:01.282Z,6.20
2023-02-13T21:01:32.395Z,6.20
2023-02-13T21:04:00.329Z,6.20
2023-02-13T21:06:33.813Z,6.10
2023-02-13T21:09:02.423Z,5.90
2023-02-13T21:11:30.062Z,6.50
2023-02-13T21:13:58.367Z,5.90
2023-02-13T21:16:28.554Z,5.90
2023-02-13T21:18:58.857Z,5.80
2023-02-13T21:21:29.525Z,5.80
2023-02-13T21:23:59.251Z,5.80
2023-02-13T21:26:28.685Z,5.70
2023-02-13T21:28:56.440Z,5.60
2023-02-13T21:31:33.363Z,5.50
2023-02-13T21:34:07.180Z,5.40
2023-02-13T21:36:35.725Z,5.50
2023-02-13T21:39:04.184Z,5.30
2023-02-13T21:41:31.642Z,5.20
2023-02-13T21:43:59.911Z,5.20
2023-02-13T21:46:30.048Z,5.30
2023-02-13T21:49:02.426Z,5.30
2023-02-13T21:51:32.273Z,5.10
2023-02-13T21:54:01.375Z,5.20
2023-02-13T21:56:31.984Z,5.10
2023-02-13T21:59:00.498Z,5.10
2023-02-13T22:01:33.832Z,5.10
2023-02-13T22:04:04.463Z,5.10
2023-02-13T22:06:34.196Z,4.90
2023-02-13T22:09:11.412Z,4.70
2023-02-13T22:11:39.731Z,4.60
2023-02-13T22:14:10.778Z,4.40
2023-02-13T22:16:39.381Z,4.30
2023-02-13T22:19:07.541Z,4.30
2023-02-13T22:21:36.714Z,4.30
2023-02-13T22:24:04.641Z,4.30
2023-02-13T22:26:38.034Z,4.20
2023-02-13T22:29:11.280Z,4.30
2023-02-13T22:31:39.006Z,4.40
2023-02-13T22:34:06.887Z,4.60
2023-02-13T22:36:39.393Z,4.70
2023-02-13T22:39:09.004Z,4.60
2023-02-13T22:41:37.452Z,4.60
2023-02-13T22:44:06.190Z,4.70
2023-02-13T22:46:34.870Z,4.70
2023-02-13T22:49:02.233Z,4.70
2023-02-13T22:51:33.350Z,4.70
2023-02-13T22:54:00.974Z,4.90
2023-02-13T22:56:29.942Z,4.90
2023-02-13T22:58:58.427Z,5.00
2023-02-13T23:01:27.930Z,4.90
2023-02-13T23:03:56.245Z,4.90
2023-02-13T23:06:24.289Z,4.80
2023-02-13T23:08:54.985Z,4.80
2023-02-13T23:11:44.011Z,4.70
2023-02-13T23:14:11.941Z,4.80
2023-02-13T23:16:59.199Z,4.80
2023-02-13T23:19:27.895Z,4.70
2023-02-13T23:21:56.079Z,4.70
2023-02-13T23:24:23.378Z,4.70
2023-02-13T23:26:50.540Z,4.70
2023-02-13T23:29:18.432Z,4.70
2023-02-13T23:31:45.807Z,4.70
2023-02-13T23:34:13.112Z,4.70
2023-02-13T23:36:40.369Z,4.70
2023-02-13T23:39:07.556Z,4.70
2023-02-13T23:41:34.765Z,4.70
2023-02-13T23:44:02.076Z,4.60
2023-02-13T23:46:29.485Z,4.60
2023-02-13T23:48:56.764Z,4.60
2023-02-13T23:51:25.787Z,4.70
2023-02-13T23:53:56.354Z,4.70
2023-02-13T23:56:25.491Z,4.80
2023-02-13T23:58:53.641Z,4.80
